createdAt,value
2018-04-01T00:00:01.271Z,10.90
2018-04-01T00:01:01.222Z,11.20
2018-04-01T00:02:01.190Z,11.70
2018-04-01T00:03:01.166Z,11.10
2018-04-01T00:04:01.095Z,11.70
2018-04-01T00:05:01.064Z,11.10
2018-04-01T00:06:01.019Z,11.10
2018-04-01T00:07:00.976Z,12.40
2018-04-01T00:08:00.972Z,12.50
2018-04-01T00:09:00.898Z,12.60
2018-04-01T00:10:00.860Z,12.50
2018-04-01T00:11:00.808Z,12.10
2018-04-01T00:12:00.769Z,12.40
2018-04-01T00:13:00.732Z,12.10
2018-04-01T00:14:00.721Z,13.30
2018-04-01T00:15:00.655Z,13.00
2018-04-01T00:16:00.614Z,14.30
2018-04-01T00:17:00.567Z,15.00
2018-04-01T00:18:00.521Z,14.20
2018-04-01T00:19:00.514Z,14.80
2018-04-01T00:20:00.450Z,16.30
2018-04-01T00:21:00.400Z,16.40
2018-04-01T00:22:00.366Z,17.00
2018-04-01T00:23:00.321Z,16.50
2018-04-01T00:24:00.307Z,18.20
2018-04-01T00:25:00.242Z,18.70
2018-04-01T00:26:00.201Z,19.00
2018-04-01T00:27:00.160Z,17.90
2018-04-01T00:28:00.127Z,17.80
2018-04-01T00:29:00.105Z,18.50
2018-04-01T00:30:00.042Z,19.10
2018-04-01T00:30:59.988Z,19.30
2018-04-01T00:31:59.957Z,20.40
2018-04-01T00:32:59.914Z,21.00
2018-04-01T00:33:59.873Z,21.00
2018-04-01T00:34:59.857Z,20.80
2018-04-01T00:35:59.790Z,21.30
2018-04-01T00:36:59.743Z,23.60
2018-04-01T00:37:59.703Z,23.70
2018-04-01T00:38:59.664Z,23.30
2018-04-01T00:39:59.627Z,24.60
2018-04-01T00:40:59.624Z,23.00
2018-04-01T00:41:59.544Z,23.40
2018-04-01T00:42:59.498Z,23.80
2018-04-01T00:43:59.451Z,23.00
2018-04-01T00:44:59.420Z,22.70
2018-04-01T00:45:59.368Z,22.10
2018-04-01T00:46:59.355Z,23.90
2018-04-01T00:47:59.296Z,23.90
2018-04-01T00:48:59.255Z,21.10
2018-04-01T00:49:59.209Z,23.30
2018-04-01T00:50:59.192Z,22.70
2018-04-01T00:51:59.122Z,22.50
2018-04-01T00:52:59.078Z,24.50
2018-04-01T00:53:59.049Z,23.60
2018-04-01T00:54:58.993Z,23.90
2018-04-01T00:55:58.954Z,23.80
2018-04-01T00:56:58.952Z,21.90
2018-04-01T00:57:58.869Z,25.10
2018-04-01T00:58:58.836Z,27.10
2018-04-01T00:59:58.805Z,26.40
2018-04-01T01:00:58.751Z,26.40
2018-04-01T01:01:58.707Z,28.50
2018-04-01T01:02:58.701Z,25.80
2018-04-01T01:03:58.630Z,26.00
2018-04-01T01:04:58.583Z,26.20
2018-04-01T01:05:58.542Z,27.70
2018-04-01T01:06:58.496Z,27.00
2018-04-01T01:07:58.452Z,27.70
2018-04-01T01:08:58.438Z,22.10
2018-04-01T01:09:58.392Z,24.60
2018-04-01T01:10:58.338Z,23.50
2018-04-01T01:11:58.292Z,23.50
2018-04-01T01:12:58.280Z,21.60
2018-04-01T01:13:58.206Z,20.10
2018-04-01T01:14:58.162Z,20.70
2018-04-01T01:15:58.119Z,18.00
2018-04-01T01:16:58.086Z,20.70
2018-04-01T01:17:58.076Z,22.20
2018-04-01T01:18:58.036Z,20.40
2018-04-01T01:19:57.962Z,23.00
2018-04-01T01:20:57.920Z,25.00
2018-04-01T01:21:57.867Z,25.20
2018-04-01T01:22:57.837Z,24.30
2018-04-01T01:23:57.791Z,25.20
2018-04-01T01:24:57.777Z,25.90
2018-04-01T01:25:57.706Z,23.00
2018-04-01T01:26:57.664Z,24.60
2018-04-01T01:27:57.624Z,21.70
2018-04-01T01:28:57.587Z,20.10
2018-04-01T01:29:57.533Z,18.10
2018-04-01T01:30:57.527Z,19.40
2018-04-01T01:31:57.451Z,25.00
2018-04-01T01:32:57.408Z,19.80
2018-04-01T01:33:57.370Z,21.40
2018-04-01T01:34:57.330Z,29.30
2018-04-01T01:35:57.284Z,28.70
2018-04-01T01:36:57.269Z,27.90
2018-04-01T01:37:57.204Z,28.00
2018-04-01T01:38:57.155Z,27.20
2018-04-01T01:39:57.113Z,28.10
2018-04-01T01:40:57.078Z,25.90
2018-04-01T01:41:57.058Z,25.20
2018-04-01T01:42:56.998Z,25.40
2018-04-01T01:43:56.950Z,26.40
2018-04-01T01:44:56.903Z,22.80
2018-04-01T01:45:56.873Z,25.70
2018-04-01T01:46:56.851Z,25.10
2018-04-01T01:47:56.784Z,23.20
2018-04-01T01:48:56.748Z,22.80
2018-04-01T01:49:56.690Z,23.10
2018-04-01T01:50:56.655Z,22.90
2018-04-01T01:51:56.607Z,22.40
2018-04-01T01:52:56.607Z,23.00
2018-04-01T01:53:56.523Z,21.30
2018-04-01T01:54:56.492Z,22.20
2018-04-01T01:55:56.449Z,21.50
2018-04-01T01:56:56.405Z,22.50
2018-04-01T01:57:56.366Z,21.40
2018-04-01T01:58:56.344Z,21.10
2018-04-01T01:59:56.274Z,24.10
2018-04-01T02:00:56.234Z,24.10
2018-04-01T02:01:56.186Z,27.10
2018-04-01T02:02:56.156Z,26.90
2018-04-01T02:03:56.141Z,26.10
2018-04-01T02:04:56.070Z,25.30
2018-04-01T02:05:56.024Z,27.30
2018-04-01T02:06:55.983Z,27.30
2018-04-01T02:07:55.946Z,26.90
2018-04-01T02:08:55.895Z,27.60
2018-04-01T02:09:55.940Z,25.90
2018-04-01T02:10:55.810Z,25.70
2018-04-01T02:11:55.777Z,26.00
2018-04-01T02:12:55.730Z,24.50
2018-04-01T02:13:55.694Z,24.00
2018-04-01T02:14:55.653Z,28.30
2018-04-01T02:15:55.634Z,28.90
2018-04-01T02:16:55.559Z,27.70
2018-04-01T02:17:55.522Z,29.40
2018-04-01T02:18:55.482Z,26.00
2018-04-01T02:19:55.439Z,26.20
2018-04-01T02:20:55.401Z,26.80
2018-04-01T02:21:55.374Z,27.30
2018-04-01T02:22:55.311Z,28.10
2018-04-01T02:23:55.265Z,27.80
2018-04-01T02:24:55.233Z,28.60
2018-04-01T02:25:55.189Z,28.40
2018-04-01T02:26:55.145Z,27.20
2018-04-01T02:27:55.131Z,28.00
2018-04-01T02:28:55.069Z,27.30
2018-04-01T02:29:55.023Z,27.80
2018-04-01T02:30:54.974Z,25.30
2018-04-01T02:31:54.937Z,25.70
2018-04-01T02:32:54.893Z,25.70
2018-04-01T02:33:54.872Z,24.60
2018-04-01T02:34:54.814Z,25.20
2018-04-01T02:35:54.777Z,25.10
2018-04-01T02:36:54.726Z,24.10
2018-04-01T02:37:54.716Z,25.40
2018-04-01T02:38:54.647Z,24.70
2018-04-01T02:39:54.607Z,26.00
2018-04-01T02:40:54.564Z,28.10
2018-04-01T02:41:54.520Z,27.30
2018-04-01T02:42:54.472Z,30.40
2018-04-01T02:43:54.455Z,30.60
2018-04-01T02:44:54.392Z,29.80
2018-04-01T02:45:54.356Z,29.70
2018-04-01T02:46:54.318Z,29.20
2018-04-01T02:47:54.276Z,28.90
2018-04-01T02:48:54.256Z,29.00
2018-04-01T02:49:54.192Z,28.70
2018-04-01T02:50:54.140Z,27.40
2018-04-01T02:51:54.105Z,26.40
2018-04-01T02:52:54.063Z,26.10
2018-04-01T02:53:54.021Z,28.30
2018-04-01T02:54:54.003Z,26.90
2018-04-01T02:55:53.937Z,27.20
2018-04-01T02:56:53.893Z,27.30
2018-04-01T02:57:53.848Z,27.80
2018-04-01T02:58:53.817Z,27.40
2018-04-01T02:59:53.780Z,28.10
2018-04-01T03:00:53.756Z,27.30
2018-04-01T03:01:53.690Z,28.10
2018-04-01T03:02:53.649Z,28.10
2018-04-01T03:03:53.602Z,27.30
2018-04-01T03:04:53.592Z,27.40
2018-04-01T03:05:53.523Z,28.30
2018-04-01T03:06:53.480Z,27.10
2018-04-01T03:07:53.439Z,27.30
2018-04-01T03:08:53.402Z,27.60
2018-04-01T03:09:53.388Z,26.90
2018-04-01T03:10:53.308Z,26.90
2018-04-01T03:11:53.273Z,25.80
2018-04-01T03:12:53.226Z,26.60
2018-04-01T03:13:53.195Z,26.30
2018-04-01T03:14:53.149Z,25.50
2018-04-01T03:15:53.136Z,25.20
2018-04-01T03:16:53.070Z,25.90
2018-04-01T03:17:53.020Z,25.50
2018-04-01T03:18:52.982Z,25.90
2018-04-01T03:19:52.947Z,26.30
2018-04-01T03:20:52.896Z,26.10
2018-04-01T03:21:52.891Z,26.70
2018-04-01T03:22:52.822Z,28.50
2018-04-01T03:23:52.777Z,28.70
2018-04-01T03:24:52.736Z,29.70
2018-04-01T03:25:52.686Z,30.40
2018-04-01T03:26:52.651Z,29.90
2018-04-01T03:27:52.629Z,28.80
2018-04-01T03:28:52.567Z,29.20
2018-04-01T03:29:52.529Z,27.90
2018-04-01T03:30:52.486Z,27.40
2018-04-01T03:31:52.470Z,27.00
2018-04-01T03:32:52.403Z,27.90
2018-04-01T03:33:52.367Z,27.50
2018-04-01T03:34:52.317Z,28.00
2018-04-01T03:35:52.287Z,27.70
2018-04-01T03:36:52.264Z,27.60
2018-04-01T03:37:52.195Z,27.70
2018-04-01T03:38:52.159Z,27.00
2018-04-01T03:39:52.117Z,27.50
2018-04-01T03:40:52.077Z,29.90
2018-04-01T03:41:52.032Z,28.80
2018-04-01T03:42:52.028Z,28.00
2018-04-01T03:43:51.952Z,29.40
2018-04-01T03:44:51.914Z,25.90
2018-04-01T03:45:51.867Z,27.40
2018-04-01T03:46:51.825Z,30.40
2018-04-01T03:47:51.786Z,27.20
2018-04-01T03:48:51.764Z,26.40
2018-04-01T03:49:51.718Z,27.00
2018-04-01T03:50:51.663Z,26.00
2018-04-01T03:51:51.628Z,25.30
2018-04-01T03:52:51.585Z,20.70
2018-04-01T03:53:51.565Z,19.70
2018-04-01T03:54:51.501Z,20.40
2018-04-01T03:55:51.454Z,19.90
2018-04-01T03:56:51.407Z,19.00
2018-04-01T03:57:51.373Z,19.30
2018-04-01T03:58:51.363Z,18.80
2018-04-01T03:59:51.300Z,19.10
2018-04-01T04:00:51.249Z,18.20
2018-04-01T04:01:51.217Z,20.90
2018-04-01T04:02:51.165Z,20.90
2018-04-01T04:03:51.145Z,20.50
2018-04-01T04:04:51.082Z,20.30
2018-04-01T04:05:51.039Z,20.10
2018-04-01T04:06:50.997Z,20.70
2018-04-01T04:07:50.953Z,18.90
2018-04-01T04:08:50.913Z,20.40
2018-04-01T04:09:50.908Z,19.50
2018-04-01T04:10:50.822Z,17.40
2018-04-01T04:11:50.782Z,17.30
2018-04-01T04:12:50.749Z,19.50
2018-04-01T04:13:50.711Z,17.70
2018-04-01T04:14:50.662Z,17.50
2018-04-01T04:15:50.640Z,18.50
2018-04-01T04:16:50.577Z,18.70
2018-04-01T04:17:50.536Z,18.70
2018-04-01T04:18:50.536Z,18.20
2018-04-01T04:19:50.455Z,18.20
2018-04-01T04:20:50.414Z,18.80
2018-04-01T04:21:50.393Z,19.10
2018-04-01T04:22:50.317Z,17.60
2018-04-01T04:23:50.277Z,16.70
2018-04-01T04:24:50.249Z,17.50
2018-04-01T04:25:50.192Z,18.00
2018-04-01T04:26:50.157Z,16.90
2018-04-01T04:27:50.138Z,17.80
2018-04-01T04:28:50.070Z,19.20
2018-04-01T04:29:50.028Z,17.90
2018-04-01T04:30:49.988Z,18.10
2018-04-01T04:31:49.954Z,17.20
2018-04-01T04:32:49.902Z,17.80
2018-04-01T04:33:49.902Z,16.30
2018-04-01T04:34:49.821Z,16.50
2018-04-01T04:35:49.777Z,15.40
2018-04-01T04:36:49.734Z,14.90
2018-04-01T04:37:49.696Z,14.20
2018-04-01T04:38:49.660Z,13.70
2018-04-01T04:39:49.645Z,13.10
2018-04-01T04:40:49.562Z,13.40
2018-04-01T04:41:49.524Z,13.10
2018-04-01T04:42:49.476Z,12.70
2018-04-01T04:43:49.442Z,12.30
2018-04-01T04:44:49.403Z,11.90
2018-04-01T04:45:49.380Z,11.50
2018-04-01T04:46:49.318Z,11.50
2018-04-01T04:47:49.273Z,12.20
2018-04-01T04:48:49.233Z,12.20
2018-04-01T04:49:49.188Z,11.70
2018-04-01T04:50:49.168Z,11.70
2018-04-01T04:51:49.107Z,10.40
2018-04-01T04:52:49.063Z,10.10
2018-04-01T04:53:49.027Z,11.50
2018-04-01T04:54:48.975Z,10.20
2018-04-01T04:55:48.969Z,7.70
2018-04-01T04:56:48.899Z,8.00
2018-04-01T04:57:48.854Z,6.40
2018-04-01T04:58:48.815Z,7.20
2018-04-01T04:59:48.771Z,6.30
2018-04-01T05:00:48.721Z,6.20
2018-04-01T05:01:48.714Z,6.50
2018-04-01T05:02:48.635Z,7.00
2018-04-01T05:03:48.605Z,8.20
2018-04-01T05:04:48.558Z,6.90
2018-04-01T05:05:48.526Z,6.70
2018-04-01T05:06:48.466Z,5.80
2018-04-01T05:07:48.456Z,5.90
2018-04-01T05:08:48.394Z,5.80
2018-04-01T05:09:48.355Z,6.60
2018-04-01T05:10:48.301Z,5.20
2018-04-01T05:11:48.273Z,5.70
2018-04-01T05:12:48.229Z,6.30
2018-04-01T05:13:48.213Z,6.80
2018-04-01T05:14:48.139Z,6.30
2018-04-01T05:15:48.096Z,7.10
2018-04-01T05:16:48.053Z,7.60
2018-04-01T05:17:48.005Z,7.70
2018-04-01T05:18:47.968Z,8.60
2018-04-01T05:19:47.951Z,8.30
2018-04-01T05:20:47.892Z,8.30
2018-04-01T05:21:47.837Z,9.40
2018-04-01T05:22:47.807Z,9.50
2018-04-01T05:23:47.757Z,9.70
2018-04-01T05:24:47.739Z,9.00
2018-04-01T05:25:47.676Z,9.30
2018-04-01T05:26:47.634Z,10.40
2018-04-01T05:27:47.594Z,11.10
2018-04-01T05:28:47.553Z,12.50
2018-04-01T05:29:47.509Z,10.70
2018-04-01T05:30:47.494Z,11.80
2018-04-01T05:31:47.425Z,10.20
2018-04-01T05:32:47.377Z,10.60
2018-04-01T05:33:47.336Z,10.30
2018-04-01T05:34:47.329Z,11.00
2018-04-01T05:35:47.262Z,11.40
2018-04-01T05:36:47.217Z,11.40
2018-04-01T05:37:47.180Z,11.00
2018-04-01T05:38:47.125Z,10.50
2018-04-01T05:39:47.094Z,10.20
2018-04-01T05:40:47.079Z,10.50
2018-04-01T05:41:47.010Z,9.70
2018-04-01T05:42:46.963Z,9.60
2018-04-01T05:43:46.928Z,11.00
2018-04-01T05:44:46.884Z,9.70
2018-04-01T05:45:46.841Z,10.00
2018-04-01T05:46:46.829Z,11.80
2018-04-01T05:47:46.750Z,10.50
2018-04-01T05:48:46.722Z,9.40
2018-04-01T05:49:46.678Z,9.70
2018-04-01T05:50:46.626Z,9.70
2018-04-01T05:51:46.577Z,9.60
2018-04-01T05:52:46.566Z,10.00
2018-04-01T05:53:46.511Z,10.50
2018-04-01T05:54:46.463Z,10.80
2018-04-01T05:55:46.424Z,10.60
2018-04-01T05:56:46.404Z,9.80
2018-04-01T05:57:46.332Z,9.60
2018-04-01T05:58:46.291Z,11.50
2018-04-01T05:59:46.249Z,10.20
2018-04-01T06:00:46.212Z,11.50
2018-04-01T06:01:46.169Z,11.00
2018-04-01T06:02:46.151Z,12.00
2018-04-01T06:03:46.091Z,11.00
2018-04-01T06:04:46.045Z,12.90
2018-04-01T06:05:46.010Z,13.30
2018-04-01T06:06:45.988Z,14.00
2018-04-01T06:07:45.920Z,13.70
2018-04-01T06:08:45.881Z,14.10
2018-04-01T06:09:45.831Z,13.40
2018-04-01T06:10:45.796Z,14.10
2018-04-01T06:11:45.746Z,14.80
2018-04-01T06:12:45.737Z,14.60
2018-04-01T06:13:45.667Z,15.60
2018-04-01T06:14:45.644Z,15.40
2018-04-01T06:15:45.592Z,15.40
2018-04-01T06:16:45.538Z,14.40
2018-04-01T06:17:45.531Z,12.00
2018-04-01T06:18:45.461Z,10.30
2018-04-01T06:19:45.425Z,9.50
2018-04-01T06:20:45.375Z,8.90
2018-04-01T06:21:45.347Z,10.40
2018-04-01T06:22:45.301Z,9.00
2018-04-01T06:23:45.275Z,7.90
2018-04-01T06:24:45.211Z,7.30
2018-04-01T06:25:45.167Z,6.10
2018-04-01T06:26:45.133Z,5.80
2018-04-01T06:27:45.084Z,5.40
2018-04-01T06:28:45.077Z,5.20
2018-04-01T06:29:44.998Z,5.30
2018-04-01T06:30:44.949Z,5.40
2018-04-01T06:31:44.919Z,5.50
2018-04-01T06:32:44.886Z,5.90
2018-04-01T06:33:44.875Z,5.80
2018-04-01T06:34:44.798Z,5.50
2018-04-01T06:35:44.746Z,5.40
2018-04-01T06:36:44.700Z,5.80
2018-04-01T06:37:44.684Z,5.70
2018-04-01T06:38:44.616Z,5.90
2018-04-01T06:39:44.619Z,6.20
2018-04-01T06:40:44.531Z,6.40
2018-04-01T06:41:44.496Z,6.30
2018-04-01T06:42:44.453Z,6.40
2018-04-01T06:43:44.432Z,6.40
2018-04-01T06:44:44.367Z,6.30
2018-04-01T06:45:44.375Z,7.00
2018-04-01T06:46:44.303Z,6.70
2018-04-01T06:47:44.250Z,7.20
2018-04-01T06:48:44.212Z,6.60
2018-04-01T06:49:44.168Z,6.60
2018-04-01T06:50:44.123Z,7.00
2018-04-01T06:51:44.095Z,7.30
2018-04-01T06:52:44.046Z,7.70
2018-04-01T06:53:43.992Z,7.30
2018-04-01T06:54:43.950Z,8.10
2018-04-01T06:55:43.902Z,7.70
2018-04-01T06:56:43.866Z,7.20
2018-04-01T06:57:43.864Z,7.20
2018-04-01T06:58:43.791Z,7.60
2018-04-01T06:59:43.748Z,7.70
2018-04-01T07:00:43.701Z,6.70
2018-04-01T07:01:43.658Z,6.30
2018-04-01T07:02:43.614Z,6.00
2018-04-01T07:03:43.611Z,5.80
2018-04-01T07:04:43.543Z,5.70
2018-04-01T07:05:43.484Z,6.30
2018-04-01T07:06:43.454Z,6.20
2018-04-01T07:07:43.423Z,6.10
2018-04-01T07:08:43.360Z,5.80
2018-04-01T07:09:43.353Z,5.40
2018-04-01T07:10:43.280Z,5.20
2018-04-01T07:11:43.242Z,4.90
2018-04-01T07:12:43.214Z,4.80
2018-04-01T07:13:43.154Z,4.70
2018-04-01T07:14:43.244Z,5.00
2018-04-01T07:15:43.077Z,4.50
2018-04-01T07:16:43.042Z,4.80
2018-04-01T07:17:42.983Z,4.90
2018-04-01T07:18:42.954Z,5.10
2018-04-01T07:19:42.900Z,4.50
2018-04-01T07:20:42.886Z,4.80
2018-04-01T07:21:42.831Z,4.70
2018-04-01T07:22:42.778Z,4.80
2018-04-01T07:23:42.741Z,5.10
2018-04-01T07:24:42.700Z,4.80
2018-04-01T07:25:42.648Z,5.10
2018-04-01T07:26:42.649Z,5.10
2018-04-01T07:27:42.569Z,5.10
2018-04-01T07:28:42.544Z,5.40
2018-04-01T07:29:42.492Z,5.30
2018-04-01T07:30:42.445Z,5.40
2018-04-01T07:31:42.407Z,6.10
2018-04-01T07:32:42.387Z,6.10
2018-04-01T07:33:42.322Z,6.20
2018-04-01T07:34:42.268Z,6.40
2018-04-01T07:35:42.240Z,6.20
2018-04-01T07:36:42.197Z,6.30
2018-04-01T07:37:42.144Z,6.90
2018-04-01T07:38:42.133Z,6.70
2018-04-01T07:39:42.065Z,7.00
2018-04-01T07:40:42.022Z,7.60
2018-04-01T07:41:41.994Z,7.90
2018-04-01T07:42:41.947Z,7.70
2018-04-01T07:43:41.906Z,8.70
2018-04-01T07:44:41.879Z,9.40
2018-04-01T07:45:41.817Z,9.60
2018-04-01T07:46:41.776Z,9.70
2018-04-01T07:47:41.733Z,10.80
2018-04-01T07:48:41.692Z,10.60
2018-04-01T07:49:41.642Z,11.10
2018-04-01T07:50:41.639Z,12.00
2018-04-01T07:51:41.592Z,11.70
2018-04-01T07:52:41.528Z,12.50
2018-04-01T07:53:41.497Z,13.00
2018-04-01T07:54:41.470Z,13.30
2018-04-01T07:55:41.429Z,14.10
2018-04-01T07:56:41.395Z,14.30
2018-04-01T07:57:41.314Z,14.90
2018-04-01T07:58:41.274Z,14.80
2018-04-01T07:59:41.238Z,15.80
2018-04-01T08:00:41.225Z,15.40
2018-04-01T08:01:41.153Z,16.20
2018-04-01T08:02:41.131Z,15.80
2018-04-01T08:03:41.059Z,17.10
2018-04-01T08:04:41.021Z,16.20
2018-04-01T08:05:40.983Z,16.70
2018-04-01T08:06:40.940Z,18.00
2018-04-01T08:07:40.901Z,19.00
2018-04-01T08:08:40.886Z,18.40
2018-04-01T08:09:40.834Z,19.60
2018-04-01T08:10:40.773Z,21.50
2018-04-01T08:11:40.726Z,19.90
2018-04-01T08:12:40.688Z,20.60
2018-04-01T08:13:40.643Z,21.20
2018-04-01T08:14:40.634Z,19.70
2018-04-01T08:15:40.577Z,18.90
2018-04-01T08:16:40.539Z,19.30
2018-04-01T08:17:40.594Z,19.30
2018-04-01T08:18:40.464Z,19.70
2018-04-01T08:19:40.396Z,21.30
2018-04-01T08:20:40.388Z,19.90
2018-04-01T08:21:40.310Z,21.30
2018-04-01T08:22:40.271Z,21.80
2018-04-01T08:23:40.236Z,23.20
2018-04-01T08:24:40.195Z,22.20
2018-04-01T08:25:40.142Z,24.70
2018-04-01T08:26:40.131Z,23.10
2018-04-01T08:27:40.062Z,24.20
2018-04-01T08:28:40.066Z,24.90
2018-04-01T08:29:39.982Z,24.20
2018-04-01T08:30:39.939Z,24.90
2018-04-01T08:31:39.905Z,24.60
2018-04-01T08:32:39.885Z,24.90
2018-04-01T08:33:39.815Z,24.00
2018-04-01T08:34:39.773Z,26.00
2018-04-01T08:35:39.724Z,25.60
2018-04-01T08:36:39.732Z,25.50
2018-04-01T08:37:39.658Z,25.20
2018-04-01T08:38:39.638Z,23.30
2018-04-01T08:39:39.590Z,22.90
2018-04-01T08:40:39.543Z,24.00
2018-04-01T08:41:39.489Z,24.40
2018-04-01T08:42:39.447Z,25.50
2018-04-01T08:43:39.396Z,25.00
2018-04-01T08:44:39.386Z,25.00
2018-04-01T08:45:39.310Z,24.40
2018-04-01T08:46:39.273Z,23.30
2018-04-01T08:47:39.241Z,24.80
2018-04-01T08:48:39.199Z,25.30
2018-04-01T08:49:39.152Z,23.90
2018-04-01T08:50:39.150Z,25.40
2018-04-01T08:51:39.073Z,25.60
2018-04-01T08:52:39.029Z,25.70
2018-04-01T08:53:38.992Z,23.60
2018-04-01T08:54:38.946Z,24.60
2018-04-01T08:55:38.910Z,25.30
2018-04-01T08:56:38.914Z,23.30
2018-04-01T08:57:38.832Z,25.50
2018-04-01T08:58:38.816Z,25.10
2018-04-01T08:59:38.746Z,24.40
2018-04-01T09:00:38.712Z,24.20
2018-04-01T09:01:38.686Z,24.30
2018-04-01T09:02:38.627Z,24.70
2018-04-01T09:03:38.577Z,22.90
2018-04-01T09:04:38.545Z,20.30
2018-04-01T09:05:38.517Z,22.10
2018-04-01T09:06:38.498Z,22.60
2018-04-01T09:07:38.445Z,18.90
2018-04-01T09:08:38.373Z,20.30
2018-04-01T09:09:38.324Z,21.10
2018-04-01T09:10:38.283Z,20.80
2018-04-01T09:11:38.248Z,21.60
2018-04-01T09:12:38.202Z,21.00
2018-04-01T09:13:38.197Z,21.80
2018-04-01T09:14:38.114Z,23.00
2018-04-01T09:15:38.092Z,21.70
2018-04-01T09:16:38.038Z,22.40
2018-04-01T09:17:37.998Z,21.30
2018-04-01T09:18:37.956Z,21.20
2018-04-01T09:19:37.948Z,23.40
2018-04-01T09:20:37.904Z,22.40
2018-04-01T09:21:38.421Z,22.90
2018-04-01T09:22:37.801Z,23.00
2018-04-01T09:23:37.763Z,22.30
2018-04-01T09:24:37.737Z,23.30
2018-04-01T09:25:37.696Z,23.70
2018-04-01T09:26:37.633Z,23.30
2018-04-01T09:27:37.615Z,25.40
2018-04-01T09:28:37.552Z,24.80
2018-04-01T09:29:37.526Z,25.60
2018-04-01T09:30:37.475Z,24.40
2018-04-01T09:31:37.447Z,25.50
2018-04-01T09:32:37.395Z,27.10
2018-04-01T09:33:37.355Z,24.70
2018-04-01T09:34:37.349Z,26.30
2018-04-01T09:35:37.292Z,24.30
2018-04-01T09:36:37.228Z,26.20
2018-04-01T09:37:37.202Z,27.30
2018-04-01T09:38:37.133Z,27.30
2018-04-01T09:39:37.089Z,28.20
2018-04-01T09:40:37.050Z,28.50
2018-04-01T09:41:37.013Z,27.10
2018-04-01T09:42:37.010Z,26.60
2018-04-01T09:43:36.931Z,28.60
2018-04-01T09:44:36.886Z,27.20
2018-04-01T09:45:36.855Z,28.60
2018-04-01T09:46:36.796Z,29.10
2018-04-01T09:47:36.794Z,27.10
2018-04-01T09:48:36.753Z,27.60
2018-04-01T09:49:36.680Z,27.40
2018-04-01T09:50:36.676Z,28.20
2018-04-01T09:51:36.599Z,27.30
2018-04-01T09:52:36.619Z,28.30
2018-04-01T09:53:36.528Z,28.20
2018-04-01T09:54:36.527Z,30.10
2018-04-01T09:55:36.438Z,29.20
2018-04-01T09:56:36.396Z,29.40
2018-04-01T09:57:36.378Z,30.40
2018-04-01T09:58:36.315Z,30.20
2018-04-01T09:59:36.267Z,31.30
2018-04-01T10:00:36.261Z,29.30
2018-04-01T10:01:36.184Z,31.50
2018-04-01T10:02:36.140Z,30.50
2018-04-01T10:03:36.105Z,30.10
2018-04-01T10:04:36.058Z,31.50
2018-04-01T10:05:36.025Z,32.60
2018-04-01T10:06:35.995Z,32.70
2018-04-01T10:07:35.935Z,30.50
2018-04-01T10:08:35.891Z,31.00
2018-04-01T10:09:35.857Z,32.10
2018-04-01T10:10:35.816Z,32.50
2018-04-01T10:11:35.799Z,30.70
2018-04-01T10:12:35.738Z,32.70
2018-04-01T10:13:35.686Z,32.40
2018-04-01T10:14:35.653Z,31.10
2018-04-01T10:15:35.616Z,33.00
2018-04-01T10:16:35.596Z,31.40
2018-04-01T10:17:35.523Z,32.80
2018-04-01T10:18:35.484Z,32.00
2018-04-01T10:19:35.437Z,31.80
2018-04-01T10:20:35.404Z,32.20
2018-04-01T10:21:35.369Z,32.70
2018-04-01T10:22:35.354Z,33.20
2018-04-01T10:23:35.276Z,31.10
2018-04-01T10:24:35.246Z,32.60
2018-04-01T10:25:35.200Z,31.90
2018-04-01T10:26:35.163Z,33.20
2018-04-01T10:27:35.118Z,32.00
2018-04-01T10:28:35.108Z,32.20
2018-04-01T10:29:35.042Z,34.70
2018-04-01T10:30:34.997Z,33.60
2018-04-01T10:31:34.961Z,32.20
2018-04-01T10:32:34.935Z,32.60
2018-04-01T10:33:34.878Z,32.30
2018-04-01T10:34:34.871Z,32.60
2018-04-01T10:35:34.801Z,31.80
2018-04-01T10:36:34.753Z,32.00
2018-04-01T10:37:34.742Z,31.70
2018-04-01T10:38:34.687Z,32.50
2018-04-01T10:39:34.635Z,33.00
2018-04-01T10:40:34.619Z,34.40
2018-04-01T10:41:34.571Z,34.80
2018-04-01T10:42:34.514Z,35.40
2018-04-01T10:43:34.478Z,37.30
2018-04-01T10:44:34.439Z,35.70
2018-04-01T10:45:34.422Z,37.70
2018-04-01T10:46:34.380Z,38.30
2018-04-01T10:47:34.322Z,37.30
2018-04-01T10:48:34.274Z,37.50
2018-04-01T10:49:34.232Z,38.70
2018-04-01T10:50:34.533Z,37.80
2018-04-01T10:51:34.150Z,36.00
2018-04-01T10:52:34.140Z,36.10
2018-04-01T10:53:34.075Z,35.50
2018-04-01T10:54:34.036Z,34.10
2018-04-01T10:55:34.014Z,34.70
2018-04-01T10:56:33.994Z,36.80
2018-04-01T10:57:33.916Z,35.00
2018-04-01T10:58:33.896Z,36.80
2018-04-01T10:59:33.839Z,37.80
2018-04-01T11:00:33.798Z,35.00
2018-04-01T11:01:33.753Z,33.90
2018-04-01T11:02:33.710Z,34.80
2018-04-01T11:03:33.663Z,35.10
2018-04-01T11:04:33.662Z,33.80
2018-04-01T11:05:33.593Z,31.10
2018-04-01T11:06:33.548Z,30.70
2018-04-01T11:07:33.504Z,30.10
2018-04-01T11:08:33.466Z,30.30
2018-04-01T11:09:33.427Z,29.00
2018-04-01T11:10:33.408Z,30.60
2018-04-01T11:11:33.350Z,29.50
2018-04-01T11:12:33.313Z,29.30
2018-04-01T11:13:33.265Z,29.00
2018-04-01T11:14:33.242Z,27.80
2018-04-01T11:15:33.239Z,25.60
2018-04-01T11:16:33.364Z,28.00
2018-04-01T11:17:33.107Z,27.60
2018-04-01T11:18:33.066Z,27.50
2018-04-01T11:19:33.085Z,27.70
2018-04-01T11:20:32.985Z,26.40
2018-04-01T11:21:32.948Z,25.60
2018-04-01T11:22:43.125Z,25.00
2018-04-01T11:23:32.882Z,26.20
2018-04-01T11:24:32.878Z,25.60
2018-04-01T11:25:32.804Z,25.00
2018-04-01T11:26:32.757Z,25.60
2018-04-01T11:27:32.703Z,24.50
2018-04-01T11:28:32.679Z,24.70
2018-04-01T11:29:32.666Z,25.00
2018-04-01T11:30:32.582Z,24.20
2018-04-01T11:31:32.543Z,23.40
2018-04-01T11:32:32.498Z,23.70
2018-04-01T11:33:32.484Z,23.60
2018-04-01T11:34:32.421Z,24.10
2018-04-01T11:35:32.396Z,24.80
2018-04-01T11:36:32.348Z,24.40
2018-04-01T11:37:32.303Z,24.10
2018-04-01T11:38:32.254Z,24.40
2018-04-01T11:39:32.216Z,23.70
2018-04-01T11:40:32.182Z,23.30
2018-04-01T11:41:32.160Z,24.00
2018-04-01T11:42:32.088Z,23.20
2018-04-01T11:43:32.062Z,23.00
2018-04-01T11:44:32.014Z,21.60
2018-04-01T11:45:31.975Z,20.90
2018-04-01T11:46:31.940Z,19.80
2018-04-01T11:47:31.915Z,19.40
2018-04-01T11:48:31.850Z,18.50
2018-04-01T11:49:31.817Z,18.80
2018-04-01T11:50:31.765Z,19.00
2018-04-01T11:51:31.729Z,19.70
2018-04-01T11:52:31.693Z,19.70
2018-04-01T11:53:31.680Z,19.50
2018-04-01T11:54:31.613Z,18.60
2018-04-01T11:55:31.569Z,18.90
2018-04-01T11:56:31.537Z,19.60
2018-04-01T11:57:31.490Z,19.40
2018-04-01T11:58:31.445Z,19.50
2018-04-01T11:59:31.429Z,19.60
2018-04-01T12:00:31.373Z,20.40
2018-04-01T12:01:31.335Z,20.50
2018-04-01T12:02:31.285Z,21.00
2018-04-01T12:03:31.282Z,19.70
2018-04-01T12:04:31.207Z,20.40
2018-04-01T12:05:31.168Z,19.20
2018-04-01T12:06:31.129Z,19.50
2018-04-01T12:07:31.091Z,19.20
2018-04-01T12:08:31.043Z,19.90
2018-04-01T12:09:31.022Z,19.70
2018-04-01T12:10:30.971Z,19.30
2018-04-01T12:11:30.925Z,19.70
2018-04-01T12:12:30.884Z,19.70
2018-04-01T12:13:30.872Z,20.50
2018-04-01T12:14:30.802Z,20.30
2018-04-01T12:15:30.765Z,18.70
2018-04-01T12:16:30.733Z,19.10
2018-04-01T12:17:30.692Z,19.70
2018-04-01T12:18:30.653Z,19.30
2018-04-01T12:19:30.635Z,20.00
2018-04-01T12:20:30.572Z,19.80
2018-04-01T12:21:30.529Z,19.40
2018-04-01T12:22:30.496Z,19.30
2018-04-01T12:23:30.450Z,18.20
2018-04-01T12:24:30.420Z,18.00
2018-04-01T12:25:30.402Z,17.90
2018-04-01T12:26:30.338Z,17.50
2018-04-01T12:27:30.302Z,18.40
2018-04-01T12:28:30.264Z,17.80
2018-04-01T12:29:30.227Z,18.70
2018-04-01T12:30:30.180Z,18.30
2018-04-01T12:31:30.205Z,18.70
2018-04-01T12:32:30.206Z,17.70
2018-04-01T12:33:30.154Z,18.20
2018-04-01T12:34:30.045Z,19.80
2018-04-01T12:35:29.998Z,19.80
2018-04-01T12:36:30.009Z,20.00
2018-04-01T12:37:29.965Z,20.30
2018-04-01T12:38:29.896Z,21.20
2018-04-01T12:39:29.877Z,19.70
2018-04-01T12:40:29.812Z,19.10
2018-04-01T12:41:29.771Z,21.40
2018-04-01T12:42:29.748Z,20.10
2018-04-01T12:43:29.722Z,21.00
2018-04-01T12:44:29.665Z,21.80
2018-04-01T12:45:29.624Z,20.60
2018-04-01T12:46:29.586Z,21.40
2018-04-01T12:47:29.550Z,21.90
2018-04-01T12:48:29.541Z,22.10
2018-04-01T12:49:29.482Z,22.50
2018-04-01T12:50:29.437Z,22.40
2018-04-01T12:51:29.408Z,22.30
2018-04-01T12:52:29.353Z,23.40
2018-04-01T12:53:29.355Z,23.30
2018-04-01T12:54:29.284Z,23.90
2018-04-01T12:55:29.253Z,22.80